< < Back
Terminal Aerodrome Forecast


Current Version              Previous Versions:   1  2  3  4  5  6  7  8  9  

Terminal Aerodrome Forecast

967
FTUS42 KJAX 291138 AAA
TAFSSI
TAF AMD
KSSI 291138Z 2912/3012 35010KT P6SM VCTS SCT025CB BKN050
      TEMPO 2912/2914 2SM TSRA BKN020CB
     FM291800 07010KT P6SM VCTS SCT025CB BKN050
     FM300000 08006KT P6SM VCSH SCT025 BKN100 OVC200=



Latest METAR

712
SAUS70 KWBC 292100 RRF
MTRSSI
METAR KSSI 292053Z AUTO 06014KT 10SM SCT017 27/23 A3007 RMK AO2 SLP184
T02720233 56018


USA.gov is the U.S. government's official web portal to all federal, state and local government web resources and services.